createdAt,value
2023-04-26T00:01:40.207Z,8.00
2023-04-26T00:06:43.896Z,7.13
2023-04-26T00:11:47.632Z,6.20
2023-04-26T00:16:53.107Z,6.43
2023-04-26T00:21:56.746Z,7.03
2023-04-26T00:27:00.349Z,6.53
2023-04-26T00:32:06.078Z,8.50
2023-04-26T00:37:09.727Z,6.32
2023-04-26T00:42:13.363Z,6.30
2023-04-26T00:47:18.683Z,6.23
2023-04-26T00:52:23.365Z,4.72
2023-04-26T00:57:27.076Z,5.80
2023-04-26T01:02:32.522Z,5.50
2023-04-26T01:07:37.603Z,5.85
2023-04-26T01:12:41.252Z,5.85
2023-04-26T01:17:49.489Z,3.55
2023-04-26T01:22:54.869Z,6.40
2023-04-26T01:27:58.476Z,3.28
2023-04-26T01:33:02.168Z,3.75
2023-04-26T01:38:07.495Z,3.33
2023-04-26T01:43:11.141Z,4.88
2023-04-26T01:48:14.786Z,4.28
2023-04-26T01:53:20.043Z,5.80
2023-04-26T01:58:23.846Z,6.45
2023-04-26T02:03:27.496Z,9.30
2023-04-26T02:08:32.746Z,9.65
2023-04-26T02:13:36.400Z,10.00
2023-04-26T02:18:40.025Z,11.00
2023-04-26T02:23:45.450Z,10.77
2023-04-26T02:28:48.268Z,11.05
2023-04-26T02:33:51.869Z,8.00
2023-04-26T02:38:57.168Z,10.25
2023-04-26T02:44:00.782Z,6.55
2023-04-26T02:49:04.437Z,10.55
2023-04-26T02:54:09.737Z,9.93
2023-04-26T02:59:13.340Z,7.63
2023-04-26T03:04:17.120Z,6.78
2023-04-26T03:09:22.422Z,9.63
2023-04-26T03:14:26.530Z,9.82
2023-04-26T03:19:30.120Z,9.07
2023-04-26T03:24:35.467Z,10.35
2023-04-26T03:29:39.083Z,11.82
2023-04-26T03:34:42.689Z,8.80
2023-04-26T03:39:47.932Z,12.35
2023-04-26T03:49:54.427Z,8.50
2023-04-26T03:54:59.744Z,8.27
2023-04-26T04:05:06.958Z,9.52
2023-04-26T04:10:12.809Z,13.52
2023-04-26T04:15:16.832Z,13.35
2023-04-26T04:20:20.688Z,8.88
2023-04-26T04:25:25.974Z,13.02
2023-04-26T04:30:29.693Z,12.10
2023-04-26T04:35:33.344Z,11.73
2023-04-26T04:40:38.748Z,12.75
2023-04-26T04:45:42.337Z,17.63
2023-04-26T04:50:45.927Z,7.88
2023-04-26T04:55:51.136Z,12.88
2023-04-26T05:00:54.784Z,12.23
2023-04-26T05:05:58.501Z,12.00
2023-04-26T05:11:03.806Z,9.93
2023-04-26T05:16:07.758Z,12.20
2023-04-26T05:21:11.425Z,14.25
2023-04-26T05:26:17.734Z,14.57
2023-04-26T05:31:21.404Z,11.77
2023-04-26T05:36:25.393Z,14.13
2023-04-26T05:41:31.672Z,11.63
2023-04-26T05:46:35.271Z,13.85
2023-04-26T05:51:38.877Z,12.70
2023-04-26T05:56:44.160Z,17.02
2023-04-26T06:01:47.822Z,14.85
2023-04-26T06:06:51.572Z,16.90
2023-04-26T06:11:56.880Z,13.10
2023-04-26T06:17:00.619Z,15.15
2023-04-26T06:22:04.312Z,19.23
2023-04-26T06:27:09.816Z,14.48
2023-04-26T06:32:13.527Z,14.80
2023-04-26T06:37:17.169Z,15.75
2023-04-26T06:42:22.508Z,13.93
2023-04-26T06:47:26.259Z,11.88
2023-04-26T06:52:29.931Z,11.38
2023-04-26T06:57:35.184Z,18.08
2023-04-26T07:02:38.902Z,11.07
2023-04-26T07:07:42.574Z,14.80
2023-04-26T07:12:47.935Z,13.80
2023-04-26T07:17:51.668Z,17.33
2023-04-26T07:22:55.266Z,16.40
2023-04-26T07:28:00.524Z,20.67
2023-04-26T07:33:04.225Z,16.47
2023-04-26T07:38:08.001Z,18.27
2023-04-26T07:43:13.241Z,16.30
2023-04-26T07:48:17.828Z,16.80
2023-04-26T07:53:21.500Z,15.70
2023-04-26T07:58:26.797Z,14.77
2023-04-26T08:03:30.633Z,13.73
2023-04-26T08:08:34.390Z,15.77
2023-04-26T08:13:39.689Z,16.75
2023-04-26T08:18:46.083Z,16.50
2023-04-26T08:23:50.783Z,13.75
2023-04-26T08:28:56.396Z,14.80
2023-04-26T08:33:59.988Z,13.98
2023-04-26T08:39:03.601Z,15.77
2023-04-26T08:44:10.249Z,14.65
2023-04-26T08:49:23.381Z,13.90
2023-04-26T08:54:27.773Z,17.55
2023-04-26T08:59:34.288Z,14.27
2023-04-26T09:04:38.519Z,14.18
2023-04-26T09:09:45.902Z,13.57
2023-04-26T09:14:51.226Z,12.80
2023-04-26T09:19:54.989Z,13.57
2023-04-26T09:24:58.682Z,14.57
2023-04-26T09:30:07.343Z,14.52
2023-04-26T09:35:21.895Z,13.10
2023-04-26T09:40:26.365Z,11.48
2023-04-26T09:45:33.929Z,11.15
2023-04-26T09:50:37.597Z,10.27
2023-04-26T09:55:41.447Z,9.98
2023-04-26T10:00:50.642Z,8.48
2023-04-26T10:05:54.716Z,9.70
2023-04-26T10:10:58.466Z,11.32
2023-04-26T10:16:04.047Z,10.82
2023-04-26T10:21:12.074Z,11.25
2023-04-26T10:26:48.326Z,10.85
2023-04-26T10:32:09.839Z,11.32
2023-04-26T10:37:14.570Z,12.30
2023-04-26T10:42:23.963Z,12.30
2023-04-26T10:47:34.942Z,12.68
2023-04-26T10:53:00.904Z,13.95
2023-04-26T10:58:27.807Z,13.73
2023-04-26T11:03:33.441Z,11.65
2023-04-26T11:08:37.399Z,14.85
2023-04-26T11:13:44.385Z,13.65
2023-04-26T11:18:50.450Z,10.93
2023-04-26T11:29:00.186Z,12.45
2023-04-26T11:34:07.594Z,12.40
2023-04-26T11:39:13.062Z,15.95
2023-04-26T11:44:20.241Z,10.90
2023-04-26T11:54:30.256Z,10.20
2023-04-26T11:59:33.939Z,7.70
2023-04-26T12:04:39.804Z,12.73
2023-04-26T12:09:43.553Z,11.73
2023-04-26T12:14:48.490Z,10.90
2023-04-26T12:19:53.777Z,12.93
2023-04-26T12:25:06.573Z,12.53
2023-04-26T12:30:10.999Z,13.73
2023-04-26T12:35:16.528Z,8.93
2023-04-26T12:40:20.476Z,13.70
2023-04-26T12:45:24.790Z,11.15
2023-04-26T12:50:30.254Z,11.77
2023-04-26T12:55:33.955Z,9.33
2023-04-26T13:00:37.620Z,8.95
2023-04-26T13:05:42.983Z,12.63
2023-04-26T13:10:46.588Z,9.23
2023-04-26T13:15:50.314Z,10.32
2023-04-26T13:20:55.579Z,10.32
2023-04-26T13:25:59.214Z,14.23
2023-04-26T13:31:03.231Z,11.07
2023-04-26T13:36:08.976Z,16.35
2023-04-26T13:41:12.712Z,12.57
2023-04-26T13:46:16.357Z,11.57
2023-04-26T13:51:21.907Z,8.45
2023-04-26T13:56:26.309Z,8.90
2023-04-26T14:01:30.178Z,11.65
2023-04-26T14:06:36.458Z,12.75
2023-04-26T14:16:43.204Z,8.80
2023-04-26T14:21:48.484Z,13.70
2023-04-26T14:26:52.063Z,17.27
2023-04-26T14:31:55.735Z,15.15
2023-04-26T14:37:01.051Z,10.13
2023-04-26T14:42:04.990Z,12.27
2023-04-26T14:47:08.654Z,15.25
2023-04-26T14:52:13.872Z,10.57
2023-04-26T14:57:17.504Z,11.10
2023-04-26T15:02:21.211Z,12.23
2023-04-26T15:07:32.019Z,9.98
2023-04-26T15:12:36.567Z,13.25
2023-04-26T15:17:40.199Z,12.88
2023-04-26T15:22:45.513Z,14.35
2023-04-26T15:27:49.209Z,12.17
2023-04-26T15:32:52.869Z,12.23
2023-04-26T15:37:58.205Z,15.63
2023-04-26T15:43:02.545Z,14.50
2023-04-26T15:48:07.037Z,13.57
2023-04-26T15:53:12.331Z,17.48
2023-04-26T15:58:15.965Z,12.98
2023-04-26T16:03:19.889Z,13.38
2023-04-26T16:08:39.474Z,13.65
2023-04-26T16:13:44.158Z,12.82
2023-04-26T16:18:47.804Z,13.20
2023-04-26T16:23:53.058Z,10.77
2023-04-26T16:28:56.643Z,12.32
2023-04-26T16:34:00.237Z,12.27
2023-04-26T16:39:05.465Z,10.75
2023-04-26T16:44:09.144Z,13.68
2023-04-26T16:49:12.735Z,10.23
2023-04-26T16:54:18.025Z,9.95
2023-04-26T17:04:25.534Z,11.98
2023-04-26T17:09:31.102Z,9.73
2023-04-26T17:14:34.802Z,10.10
2023-04-26T17:19:38.428Z,6.47
2023-04-26T17:24:43.687Z,9.32
2023-04-26T17:29:47.292Z,10.85
2023-04-26T17:34:50.895Z,7.38
2023-04-26T17:39:56.149Z,10.52
2023-04-26T17:44:59.886Z,10.93
2023-04-26T17:50:03.622Z,8.45
2023-04-26T17:55:09.860Z,10.95
2023-04-26T18:00:14.667Z,9.07
2023-04-26T18:05:18.304Z,11.43
2023-04-26T18:10:23.579Z,9.32
2023-04-26T18:15:27.339Z,8.23
2023-04-26T18:20:30.997Z,10.40
2023-04-26T18:25:36.348Z,8.68
2023-04-26T18:30:40.016Z,11.05
2023-04-26T18:35:44.339Z,9.02
2023-04-26T18:40:49.830Z,10.60
2023-04-26T18:45:53.470Z,8.40
2023-04-26T18:50:57.181Z,9.93
2023-04-26T18:56:02.423Z,8.10
2023-04-26T19:01:06.073Z,8.02
2023-04-26T19:06:10.049Z,7.70
2023-04-26T19:11:15.449Z,11.37
2023-04-26T19:16:19.901Z,10.75
2023-04-26T19:21:23.698Z,6.28
2023-04-26T19:26:29.090Z,7.15
2023-04-26T19:31:32.712Z,8.82
2023-04-26T19:36:36.328Z,9.73
2023-04-26T19:41:41.555Z,4.85
2023-04-26T19:46:45.290Z,7.72
2023-04-26T19:51:49.015Z,8.57
2023-04-26T19:56:54.323Z,6.30
2023-04-26T20:01:57.932Z,6.63
2023-04-26T20:07:01.614Z,6.55
2023-04-26T20:12:07.121Z,9.73
2023-04-26T20:17:10.717Z,8.75
2023-04-26T20:22:14.358Z,7.77
2023-04-26T20:27:19.712Z,7.63
2023-04-26T20:32:23.560Z,9.85
2023-04-26T20:37:29.393Z,7.30
2023-04-26T20:42:35.552Z,6.50
2023-04-26T20:47:39.241Z,7.97
2023-04-26T20:52:42.895Z,7.67
2023-04-26T20:57:48.148Z,4.87
2023-04-26T21:02:51.799Z,3.80
2023-04-26T21:07:55.520Z,2.77
2023-04-26T21:13:00.742Z,3.03
2023-04-26T21:18:04.525Z,3.03
2023-04-26T21:23:08.257Z,2.22
2023-04-26T21:28:13.679Z,4.53
2023-04-26T21:33:17.377Z,3.33
2023-04-26T21:38:21.012Z,3.83
2023-04-26T21:43:26.281Z,3.53
2023-04-26T21:48:29.960Z,4.60
2023-04-26T21:53:33.540Z,5.80
2023-04-26T21:58:38.856Z,5.27
2023-04-26T22:03:43.323Z,4.07
2023-04-26T22:08:47.036Z,6.35
2023-04-26T22:13:52.302Z,3.60
2023-04-26T22:18:55.924Z,3.97
2023-04-26T22:23:59.589Z,5.23
2023-04-26T22:29:04.886Z,5.13
2023-04-26T22:34:08.464Z,5.22
2023-04-26T22:39:12.438Z,4.17
2023-04-26T22:49:20.703Z,3.60
2023-04-26T22:54:24.290Z,4.33
2023-04-26T22:59:29.537Z,4.87
2023-04-26T23:04:33.289Z,5.38
2023-04-26T23:09:36.980Z,3.42
2023-04-26T23:14:43.212Z,2.42
2023-04-26T23:19:46.838Z,2.63
2023-04-26T23:24:50.477Z,3.40
2023-04-26T23:29:56.759Z,3.07
2023-04-26T23:35:00.574Z,3.90
2023-04-26T23:40:04.655Z,5.03
2023-04-26T23:45:11.389Z,5.80
2023-04-26T23:50:15.003Z,2.70
2023-04-26T23:55:18.866Z,4.33
